createdAt,value
2022-10-02T00:02:30.031Z,-85
2022-10-02T00:05:08.507Z,-86
2022-10-02T00:07:53.596Z,-86
2022-10-02T00:10:31.714Z,-85
2022-10-02T00:13:08.010Z,-85
2022-10-02T00:15:38.776Z,-85
2022-10-02T00:18:17.603Z,-85
2022-10-02T00:21:01.343Z,-86
2022-10-02T00:23:47.150Z,-86
2022-10-02T00:26:18.213Z,-85
2022-10-02T00:28:58.225Z,-85
2022-10-02T00:31:37.793Z,-85
2022-10-02T00:34:30.819Z,-85
2022-10-02T00:37:33.076Z,-85
2022-10-02T00:40:38.193Z,-86
2022-10-02T00:43:31.119Z,-86
2022-10-02T00:51:06.553Z,-84
2022-10-02T00:54:02.880Z,-72
2022-10-02T00:56:59.123Z,-73
2022-10-02T00:59:53.696Z,-73
2022-10-02T01:02:27.963Z,-72
2022-10-02T01:04:56.612Z,-73
2022-10-02T01:07:24.728Z,-73
2022-10-02T01:09:53.977Z,-73
2022-10-02T01:12:22.733Z,-73
2022-10-02T01:14:51.238Z,-73
2022-10-02T01:17:29.939Z,-73
2022-10-02T01:20:01.031Z,-73
2022-10-02T01:22:53.491Z,-73
2022-10-02T01:25:22.021Z,-73
2022-10-02T01:27:51.577Z,-73
2022-10-02T01:30:22.085Z,-72
2022-10-02T01:33:03.621Z,-73
2022-10-02T01:35:35.871Z,-73
2022-10-02T01:38:08.855Z,-73
2022-10-02T01:40:41.623Z,-73
2022-10-02T01:43:16.311Z,-73
2022-10-02T01:46:05.014Z,-73
2022-10-02T01:49:26.974Z,-73
2022-10-02T01:52:24.325Z,-73
2022-10-02T01:55:20.113Z,-73
2022-10-02T01:58:30.506Z,-73
2022-10-02T02:01:36.558Z,-73
2022-10-02T02:04:55.763Z,-73
2022-10-02T02:07:26.073Z,-73
2022-10-02T02:09:57.533Z,-73
2022-10-02T02:12:46.732Z,-73
2022-10-02T02:15:29.810Z,-73
2022-10-02T02:18:20.691Z,-73
2022-10-02T02:20:53.748Z,-74
2022-10-02T02:23:27.825Z,-73
2022-10-02T02:26:03.933Z,-73
2022-10-02T02:28:33.785Z,-73
2022-10-02T02:31:04.464Z,-74
2022-10-02T02:33:45.025Z,-72
2022-10-02T02:36:17.255Z,-74
2022-10-02T02:38:58.825Z,-73
2022-10-02T02:41:34.419Z,-72
2022-10-02T02:44:42.455Z,-74
2022-10-02T02:47:25.449Z,-74
2022-10-02T02:50:04.359Z,-74
2022-10-02T02:52:56.370Z,-73
2022-10-02T02:55:33.685Z,-73
2022-10-02T02:58:31.059Z,-73
2022-10-02T03:00:59.504Z,-74
2022-10-02T03:03:28.064Z,-74
2022-10-02T03:06:11.879Z,-73
2022-10-02T03:08:40.000Z,-74
2022-10-02T03:11:23.095Z,-73
2022-10-02T03:14:38.328Z,-74
2022-10-02T03:17:15.951Z,-73
2022-10-02T03:19:55.950Z,-72
2022-10-02T03:23:00.037Z,-72
2022-10-02T03:25:44.129Z,-72
2022-10-02T03:28:56.706Z,-73
2022-10-02T03:31:29.833Z,-74
2022-10-02T03:34:00.568Z,-73
2022-10-02T03:36:29.730Z,-74
2022-10-02T03:41:50.827Z,-74
2022-10-02T03:44:19.179Z,-73
2022-10-02T03:46:47.638Z,-73
2022-10-02T03:49:15.744Z,-74
2022-10-02T03:51:43.706Z,-74
2022-10-02T03:54:21.502Z,-73
2022-10-02T03:56:58.191Z,-73
2022-10-02T03:59:54.908Z,-74
2022-10-02T04:02:32.628Z,-74
2022-10-02T04:05:26.914Z,-74
2022-10-02T04:08:04.382Z,-74
2022-10-02T04:10:43.101Z,-74
2022-10-02T04:13:23.545Z,-74
2022-10-02T04:15:58.245Z,-72
2022-10-02T04:18:35.685Z,-74
2022-10-02T04:21:41.892Z,-72
2022-10-02T04:24:31.079Z,-72
2022-10-02T04:27:11.485Z,-74
2022-10-02T04:29:51.577Z,-73
2022-10-02T04:32:40.002Z,-74
2022-10-02T04:35:36.706Z,-74
2022-10-02T04:38:44.898Z,-74
2022-10-02T04:41:27.609Z,-73
2022-10-02T04:44:46.413Z,-73
2022-10-02T04:48:08.270Z,-74
2022-10-02T04:50:51.384Z,-74
2022-10-02T04:53:47.448Z,-73
2022-10-02T04:56:24.975Z,-73
2022-10-02T04:59:23.746Z,-73
2022-10-02T05:02:33.115Z,-74
2022-10-02T05:05:26.752Z,-72
2022-10-02T05:08:08.402Z,-74
2022-10-02T05:10:51.168Z,-74
2022-10-02T05:13:54.144Z,-73
2022-10-02T05:16:55.908Z,-74
2022-10-02T05:20:12.688Z,-74
2022-10-02T05:23:18.116Z,-74
2022-10-02T05:26:31.654Z,-74
2022-10-02T05:29:23.690Z,-73
2022-10-02T05:32:03.585Z,-74
2022-10-02T05:35:01.459Z,-74
2022-10-02T05:37:39.136Z,-74
2022-10-02T05:40:32.857Z,-73
2022-10-02T05:43:22.373Z,-74
2022-10-02T05:45:59.999Z,-73
2022-10-02T05:48:46.878Z,-74
2022-10-02T05:51:31.090Z,-74
2022-10-02T05:54:08.805Z,-74
2022-10-02T05:56:57.817Z,-73
2022-10-02T06:00:24.287Z,-74
2022-10-02T06:03:01.365Z,-74
2022-10-02T06:05:44.774Z,-74
2022-10-02T06:08:21.783Z,-74
2022-10-02T06:11:01.302Z,-74
2022-10-02T06:13:47.275Z,-73
2022-10-02T06:16:28.673Z,-74
2022-10-02T06:19:06.886Z,-74
2022-10-02T06:21:43.948Z,-74
2022-10-02T06:24:28.949Z,-74
2022-10-02T06:27:13.761Z,-74
2022-10-02T06:29:47.670Z,-74
2022-10-02T06:32:21.960Z,-72
2022-10-02T06:34:51.544Z,-74
2022-10-02T06:37:58.358Z,-74
2022-10-02T06:40:51.668Z,-73
2022-10-02T06:44:05.020Z,-73
2022-10-02T06:46:58.453Z,-73
2022-10-02T06:49:58.075Z,-73
2022-10-02T06:52:41.282Z,-73
2022-10-02T06:55:22.496Z,-73
2022-10-02T06:58:24.597Z,-73
2022-10-02T07:01:25.995Z,-73
2022-10-02T07:04:13.253Z,-73
2022-10-02T07:07:04.798Z,-73
2022-10-02T07:10:16.099Z,-73
2022-10-02T07:13:45.775Z,-73
2022-10-02T07:16:28.786Z,-73
2022-10-02T07:19:44.795Z,-73
2022-10-02T07:22:46.131Z,-73
2022-10-02T07:25:53.383Z,-73
2022-10-02T07:28:43.386Z,-73
2022-10-02T07:31:38.931Z,-73
2022-10-02T07:34:13.176Z,-73
2022-10-02T07:37:11.811Z,-73
2022-10-02T07:39:43.152Z,-73
2022-10-02T07:42:54.154Z,-73
2022-10-02T07:45:29.243Z,-73
2022-10-02T07:48:12.611Z,-74
2022-10-02T07:51:01.968Z,-73
2022-10-02T07:53:48.426Z,-73
2022-10-02T07:56:22.853Z,-73
2022-10-02T07:59:05.120Z,-73
2022-10-02T08:01:38.581Z,-73
2022-10-02T08:04:36.833Z,-74
2022-10-02T08:07:06.585Z,-74
2022-10-02T08:09:50.518Z,-76
2022-10-02T08:12:30.330Z,-75
2022-10-02T08:15:02.098Z,-73
2022-10-02T08:17:51.523Z,-73
2022-10-02T08:20:29.246Z,-73
2022-10-02T08:23:29.372Z,-73
2022-10-02T08:26:35.560Z,-74
2022-10-02T08:29:28.203Z,-73
2022-10-02T08:31:57.992Z,-74
2022-10-02T08:34:27.112Z,-73
2022-10-02T08:37:15.698Z,-73
2022-10-02T08:39:52.377Z,-73
2022-10-02T08:42:43.067Z,-74
2022-10-02T08:45:26.791Z,-74
2022-10-02T08:48:49.718Z,-73
2022-10-02T08:52:13.720Z,-74
2022-10-02T08:54:53.335Z,-74
2022-10-02T08:57:58.157Z,-74
2022-10-02T09:00:46.478Z,-74
2022-10-02T09:04:12.981Z,-74
2022-10-02T09:06:53.850Z,-74
2022-10-02T09:09:45.552Z,-74
2022-10-02T09:13:18.734Z,-74
2022-10-02T09:15:47.481Z,-74
2022-10-02T09:18:55.613Z,-74
2022-10-02T09:21:56.008Z,-74
2022-10-02T09:25:10.191Z,-74
2022-10-02T09:28:11.792Z,-74
2022-10-02T09:31:16.833Z,-74
2022-10-02T09:34:12.522Z,-74
2022-10-02T09:37:19.904Z,-74
2022-10-02T09:40:27.083Z,-73
2022-10-02T09:43:35.748Z,-73
2022-10-02T09:46:34.441Z,-74
2022-10-02T09:49:03.158Z,-73
2022-10-02T09:51:42.433Z,-73
2022-10-02T09:54:44.407Z,-74
2022-10-02T09:57:37.054Z,-74
2022-10-02T10:00:22.820Z,-73
2022-10-02T10:03:25.735Z,-73
2022-10-02T10:06:11.836Z,-73
2022-10-02T10:09:35.002Z,-73
2022-10-02T10:12:59.847Z,-73
2022-10-02T10:15:52.877Z,-73
2022-10-02T10:19:14.137Z,-73
2022-10-02T10:22:17.457Z,-73
2022-10-02T10:25:14.218Z,-73
2022-10-02T10:27:49.155Z,-73
2022-10-02T10:30:50.394Z,-74
2022-10-02T10:33:48.358Z,-73
2022-10-02T10:36:54.932Z,-73
2022-10-02T10:39:56.583Z,-74
2022-10-02T10:43:07.995Z,-73
2022-10-02T10:46:09.288Z,-73
2022-10-02T10:49:21.487Z,-74
2022-10-02T10:51:53.140Z,-73
2022-10-02T10:55:00.457Z,-73
2022-10-02T10:57:55.516Z,-73
2022-10-02T11:00:33.133Z,-73
2022-10-02T11:03:20.151Z,-74
2022-10-02T11:06:18.375Z,-73
2022-10-02T11:09:23.555Z,-73
2022-10-02T11:12:41.724Z,-73
2022-10-02T11:15:53.202Z,-73
2022-10-02T11:19:07.795Z,-73
2022-10-02T11:22:08.491Z,-73
2022-10-02T11:24:45.497Z,-73
2022-10-02T11:27:26.121Z,-73
2022-10-02T11:30:22.042Z,-74
2022-10-02T11:33:15.583Z,-74
2022-10-02T11:36:42.764Z,-73
2022-10-02T11:39:44.550Z,-73
2022-10-02T11:42:24.758Z,-72
2022-10-02T11:45:15.444Z,-72
2022-10-02T11:48:02.294Z,-73
2022-10-02T11:51:10.073Z,-72
2022-10-02T11:54:10.709Z,-72
2022-10-02T11:57:10.828Z,-72
2022-10-02T12:00:05.760Z,-72
2022-10-02T12:02:53.452Z,-72
2022-10-02T12:06:02.842Z,-73
2022-10-02T12:09:27.829Z,-72
2022-10-02T12:12:02.195Z,-72
2022-10-02T12:14:54.065Z,-73
2022-10-02T12:17:33.979Z,-73
2022-10-02T12:20:42.943Z,-73
2022-10-02T12:24:21.698Z,-73
2022-10-02T12:27:30.656Z,-73
2022-10-02T12:30:10.931Z,-73
2022-10-02T12:33:18.822Z,-72
2022-10-02T12:36:47.238Z,-72
2022-10-02T12:40:03.221Z,-73
2022-10-02T12:43:08.663Z,-73
2022-10-02T12:45:48.724Z,-73
2022-10-02T12:48:47.187Z,-71
2022-10-02T12:54:40.422Z,-71
2022-10-02T12:57:55.936Z,-70
2022-10-02T13:00:27.216Z,-70
2022-10-02T13:03:21.654Z,-70
2022-10-02T13:06:38.100Z,-69
2022-10-02T13:09:30.111Z,-70
2022-10-02T13:11:58.549Z,-70
2022-10-02T13:15:24.185Z,-70
2022-10-02T13:18:14.543Z,-71
2022-10-02T13:21:13.551Z,-70
2022-10-02T13:24:22.416Z,-70
2022-10-02T13:27:06.371Z,-71
2022-10-02T13:30:07.001Z,-71
2022-10-02T13:33:00.401Z,-70
2022-10-02T13:35:59.142Z,-71
2022-10-02T13:38:47.529Z,-71
2022-10-02T13:41:50.451Z,-71
2022-10-02T13:44:26.734Z,-70
2022-10-02T13:47:24.364Z,-71
2022-10-02T13:50:25.775Z,-71
2022-10-02T13:53:08.468Z,-71
2022-10-02T13:55:54.886Z,-70
2022-10-02T13:58:50.462Z,-70
2022-10-02T14:02:04.445Z,-70
2022-10-02T14:04:43.994Z,-70
2022-10-02T14:07:33.503Z,-70
2022-10-02T14:10:22.798Z,-71
2022-10-02T14:13:27.286Z,-70
2022-10-02T14:16:08.444Z,-70
2022-10-02T14:19:14.829Z,-70
2022-10-02T14:22:10.448Z,-70
2022-10-02T14:25:04.257Z,-70
2022-10-02T14:28:09.870Z,-70
2022-10-02T14:30:56.296Z,-70
2022-10-02T14:34:07.259Z,-70
2022-10-02T14:36:40.444Z,-68
2022-10-02T14:39:36.425Z,-70
2022-10-02T14:42:32.461Z,-70
2022-10-02T14:45:19.348Z,-69
2022-10-02T14:48:05.195Z,-69
2022-10-02T14:51:22.262Z,-69
2022-10-02T14:54:29.520Z,-69
2022-10-02T14:57:01.331Z,-70
2022-10-02T14:59:42.100Z,-70
2022-10-02T15:02:10.467Z,-70
2022-10-02T15:04:57.405Z,-69
2022-10-02T15:07:28.974Z,-69
2022-10-02T15:10:08.572Z,-69
2022-10-02T15:12:43.737Z,-70
2022-10-02T15:15:33.324Z,-70
2022-10-02T15:18:21.052Z,-70
2022-10-02T15:21:11.227Z,-69
2022-10-02T15:23:50.474Z,-69
2022-10-02T15:26:41.946Z,-69
2022-10-02T15:29:57.477Z,-69
2022-10-02T15:32:36.015Z,-69
2022-10-02T15:35:24.024Z,-69
2022-10-02T15:38:53.787Z,-69
2022-10-02T15:42:10.182Z,-69
2022-10-02T15:45:07.775Z,-69
2022-10-02T15:48:03.295Z,-69
2022-10-02T15:50:35.185Z,-70
2022-10-02T15:53:46.018Z,-70
2022-10-02T15:56:35.156Z,-70
2022-10-02T16:00:01.342Z,-70
2022-10-02T16:03:10.280Z,-70
2022-10-02T16:05:54.607Z,-70
2022-10-02T16:09:05.797Z,-71
2022-10-02T16:12:19.521Z,-70
2022-10-02T16:15:08.824Z,-69
2022-10-02T16:18:23.170Z,-70
2022-10-02T16:21:07.661Z,-70
2022-10-02T16:24:26.596Z,-70
2022-10-02T16:27:09.605Z,-70
2022-10-02T16:30:00.997Z,-70
2022-10-02T16:32:56.398Z,-70
2022-10-02T16:36:14.148Z,-70
2022-10-02T16:38:53.132Z,-69
2022-10-02T16:41:49.821Z,-70
2022-10-02T16:45:03.085Z,-71
2022-10-02T16:47:49.348Z,-70
2022-10-02T16:50:45.434Z,-71
2022-10-02T16:53:25.569Z,-70
2022-10-02T16:56:12.841Z,-70
2022-10-02T16:58:54.575Z,-70
2022-10-02T17:02:34.736Z,-70
2022-10-02T17:05:17.626Z,-70
2022-10-02T17:08:02.769Z,-70
2022-10-02T17:10:31.046Z,-70
2022-10-02T17:13:31.303Z,-70
2022-10-02T17:16:20.941Z,-70
2022-10-02T17:19:00.676Z,-70
2022-10-02T17:21:49.249Z,-70
2022-10-02T17:24:36.633Z,-70
2022-10-02T17:27:34.230Z,-70
2022-10-02T17:30:08.419Z,-70
2022-10-02T17:32:49.012Z,-70
2022-10-02T17:35:50.476Z,-70
2022-10-02T17:38:25.057Z,-70
2022-10-02T17:41:28.609Z,-70
2022-10-02T17:44:35.281Z,-70
2022-10-02T17:47:37.751Z,-70
2022-10-02T17:50:19.019Z,-70
2022-10-02T17:53:17.656Z,-70
2022-10-02T17:56:28.845Z,-70
2022-10-02T17:59:37.699Z,-70
2022-10-02T18:02:22.301Z,-71
2022-10-02T18:05:02.480Z,-70
2022-10-02T18:07:52.023Z,-70
2022-10-02T18:10:36.014Z,-70
2022-10-02T18:13:58.710Z,-70
2022-10-02T18:16:50.965Z,-70
2022-10-02T18:19:32.590Z,-69
2022-10-02T18:22:00.965Z,-70
2022-10-02T18:25:19.980Z,-70
2022-10-02T18:28:20.092Z,-70
2022-10-02T18:31:28.798Z,-70
2022-10-02T18:34:27.679Z,-70
2022-10-02T18:37:10.487Z,-70
2022-10-02T18:40:22.250Z,-70
2022-10-02T18:43:34.338Z,-71
2022-10-02T18:46:32.015Z,-70
2022-10-02T18:49:25.178Z,-70
2022-10-02T18:55:47.582Z,-72
2022-10-02T18:58:49.773Z,-73
2022-10-02T19:01:23.134Z,-72
2022-10-02T19:04:18.497Z,-72
2022-10-02T19:06:50.879Z,-72
2022-10-02T19:09:29.667Z,-72
2022-10-02T19:12:13.273Z,-73
2022-10-02T19:14:45.990Z,-72
2022-10-02T19:17:17.895Z,-72
2022-10-02T19:19:45.852Z,-72
2022-10-02T19:22:26.869Z,-72
2022-10-02T19:25:24.359Z,-72
2022-10-02T19:27:55.686Z,-72
2022-10-02T19:30:30.292Z,-71
2022-10-02T19:33:03.703Z,-72
2022-10-02T19:35:39.455Z,-73
2022-10-02T19:38:19.633Z,-73
2022-10-02T19:40:55.186Z,-72
2022-10-02T19:43:31.086Z,-73
2022-10-02T19:46:04.334Z,-73
2022-10-02T19:48:33.976Z,-73
2022-10-02T19:51:09.723Z,-71
2022-10-02T19:54:06.384Z,-72
2022-10-02T19:56:41.250Z,-73
2022-10-02T19:59:27.880Z,-72
2022-10-02T20:02:00.494Z,-73
2022-10-02T20:04:32.407Z,-72
2022-10-02T20:07:02.157Z,-71
2022-10-02T20:09:56.873Z,-73
2022-10-02T20:12:43.513Z,-72
2022-10-02T20:15:58.855Z,-72
2022-10-02T20:18:27.546Z,-72
2022-10-02T20:21:07.904Z,-72
2022-10-02T20:23:37.698Z,-72
2022-10-02T20:26:09.711Z,-72
2022-10-02T20:28:38.056Z,-72
2022-10-02T20:31:13.944Z,-72
2022-10-02T20:33:47.729Z,-72
2022-10-02T20:36:26.168Z,-72
2022-10-02T20:39:17.572Z,-72
2022-10-02T20:42:06.831Z,-71
2022-10-02T20:44:37.080Z,-72
2022-10-02T20:47:39.052Z,-72
2022-10-02T20:50:20.945Z,-72
2022-10-02T20:53:58.743Z,-72
2022-10-02T20:56:53.635Z,-72
2022-10-02T20:59:28.104Z,-73
2022-10-02T21:02:23.803Z,-71
2022-10-02T21:05:45.786Z,-72
2022-10-02T21:08:50.470Z,-72
2022-10-02T21:11:57.488Z,-73
2022-10-02T21:14:54.598Z,-73
2022-10-02T21:18:09.916Z,-72
2022-10-02T21:21:14.953Z,-73
2022-10-02T21:24:21.362Z,-73
2022-10-02T21:27:27.043Z,-73
2022-10-02T21:29:57.986Z,-71
2022-10-02T21:32:54.277Z,-73
2022-10-02T21:35:56.789Z,-72
2022-10-02T21:38:53.598Z,-74
2022-10-02T21:41:57.141Z,-72
2022-10-02T21:44:30.907Z,-73
2022-10-02T21:48:15.828Z,-73
2022-10-02T21:50:58.440Z,-72
2022-10-02T21:53:53.325Z,-74
2022-10-02T21:56:33.645Z,-74
2022-10-02T21:59:22.910Z,-74
2022-10-02T22:02:32.177Z,-73
2022-10-02T22:05:40.415Z,-71
2022-10-02T22:08:14.110Z,-73
2022-10-02T22:11:04.393Z,-73
2022-10-02T22:13:43.236Z,-73
2022-10-02T22:16:29.854Z,-73
2022-10-02T22:19:23.271Z,-73
2022-10-02T22:22:31.413Z,-73
2022-10-02T22:25:22.999Z,-73
2022-10-02T22:28:32.377Z,-72
2022-10-02T22:31:20.034Z,-72
2022-10-02T22:34:22.394Z,-70
2022-10-02T22:37:27.944Z,-73
2022-10-02T22:40:16.410Z,-72
2022-10-02T22:43:01.825Z,-72
2022-10-02T22:45:44.730Z,-73
2022-10-02T22:48:30.971Z,-71
2022-10-02T22:51:37.575Z,-72
2022-10-02T22:54:32.946Z,-71
2022-10-02T22:57:03.868Z,-71
2022-10-02T22:59:49.570Z,-71
2022-10-02T23:02:57.352Z,-72
2022-10-02T23:05:47.862Z,-71
2022-10-02T23:08:37.675Z,-72
2022-10-02T23:11:24.218Z,-74
2022-10-02T23:14:19.095Z,-71
2022-10-02T23:17:06.275Z,-73
2022-10-02T23:19:54.593Z,-74
2022-10-02T23:22:39.929Z,-73
2022-10-02T23:25:44.598Z,-72
2022-10-02T23:28:23.294Z,-71
2022-10-02T23:31:09.808Z,-72
2022-10-02T23:34:13.661Z,-71
2022-10-02T23:36:56.932Z,-71
2022-10-02T23:39:32.225Z,-71
2022-10-02T23:42:00.872Z,-71
2022-10-02T23:45:26.059Z,-72
2022-10-02T23:47:59.829Z,-72
2022-10-02T23:51:10.112Z,-73
2022-10-02T23:54:34.287Z,-73
2022-10-02T23:57:32.932Z,-72
